Time;durP1;ratioP1;P1;durP2;ratioP2;P2;SDS_P1;SDS_P2;PMS_P1;PMS_P2;Temp;Humidity;BMP_temperature;BMP_pressure;BME280_temperature;BME280_humidity;BME280_pressure;Samples;Min_cycle;Max_cycle;Signal;HPM_P1;HPM_P2
2021/10/11 07:27:02;;;;;;;12.20;2.42;;;18.10;72.80;;;;;;4904698;24;20411;-72
2021/10/11 07:29:28;;;;;;;12.27;1.77;;;18.10;73.00;;;;;;4774209;30;20060;-72
2021/10/11 07:31:54;;;;;;;13.35;2.00;;;18.10;73.30;;;;;;4775452;30;20103;-69
2021/10/11 07:34:21;;;;;;;14.48;2.00;;;18.10;75.40;;;;;;4759840;30;20451;-70
2021/10/11 07:36:47;;;;;;;15.43;1.90;;;18.00;75.70;;;;;;4766231;30;20064;-71
2021/10/11 07:39:13;;;;;;;15.23;1.70;;;18.00;75.80;;;;;;4759260;30;20388;-70
2021/10/11 07:41:38;;;;;;;12.77;2.15;;;17.90;75.30;;;;;;4756735;30;20058;-70
2021/10/11 07:44:04;;;;;;;19.75;2.90;;;18.00;75.30;;;;;;4757163;30;20044;-71
2021/10/11 07:46:30;;;;;;;18.38;2.00;;;17.90;75.50;;;;;;4757999;30;20059;-70
2021/10/11 07:48:56;;;;;;;15.45;1.80;;;17.80;74.00;;;;;;4773538;30;20488;-69
2021/10/11 07:51:21;;;;;;;9.52;1.63;;;17.70;74.90;;;;;;4774494;30;20047;-72
2021/10/11 07:53:47;;;;;;;12.25;2.22;;;17.80;75.40;;;;;;4774623;30;20220;-74
2021/10/11 07:56:13;;;;;;;10.30;1.70;;;17.80;75.60;;;;;;4759143;30;20120;-71
2021/10/11 07:58:38;;;;;;;14.55;2.60;;;17.80;75.60;;;;;;4770502;30;20152;-70
2021/10/11 08:01:04;;;;;;;13.65;1.77;;;17.80;75.50;;;;;;4774393;30;20056;-70
2021/10/11 08:03:30;;;;;;;11.30;1.80;;;17.90;75.40;;;;;;4759444;30;20040;-69
2021/10/11 08:05:56;;;;;;;14.63;2.92;;;17.90;75.50;;;;;;4756721;30;20535;-70
2021/10/11 08:08:21;;;;;;;15.90;2.13;;;17.90;75.10;;;;;;4756466;30;20060;-70
2021/10/11 08:10:47;;;;;;;13.23;2.08;;;17.90;75.00;;;;;;4756535;30;20149;-70
2021/10/11 08:13:13;;;;;;;10.68;1.88;;;17.90;75.20;;;;;;4756079;30;20044;-71
2021/10/11 08:15:39;;;;;;;19.40;2.13;;;17.90;75.20;;;;;;4771985;30;20044;-69
2021/10/11 08:18:04;;;;;;;15.18;2.45;;;17.90;75.30;;;;;;4775095;30;20130;-70
2021/10/11 08:20:30;;;;;;;12.45;1.52;;;17.90;73.00;;;;;;4773589;30;20052;-69
2021/10/11 08:22:56;;;;;;;10.55;1.52;;;17.40;71.70;;;;;;4773908;30;20510;-72
2021/10/11 08:25:23;;;;;;;14.02;1.85;;;17.30;74.40;;;;;;4774201;30;20052;-70
2021/10/11 08:27:48;;;;;;;12.05;1.50;;;17.40;75.80;;;;;;4769324;30;20064;-69
2021/10/11 08:30:14;;;;;;;9.13;0.88;;;17.50;75.80;;;;;;4756707;30;20054;-70
2021/10/11 08:32:40;;;;;;;10.05;1.67;;;17.60;75.90;;;;;;4756352;30;20376;-70
2021/10/11 08:35:07;;;;;;;10.10;1.42;;;17.60;75.70;;;;;;4756207;30;20369;-69
2021/10/11 08:37:32;;;;;;;11.93;1.50;;;17.70;75.90;;;;;;4756243;30;20139;-71
2021/10/11 08:39:58;;;;;;;12.88;1.42;;;17.70;76.10;;;;;;4741194;30;20135;-71
2021/10/11 08:42:24;;;;;;;14.23;1.80;;;17.80;75.80;;;;;;4756384;30;20052;-69
2021/10/11 08:44:50;;;;;;;9.70;1.10;;;17.80;75.50;;;;;;4769238;30;20078;-69
2021/10/11 08:47:16;;;;;;;11.95;1.42;;;17.90;74.70;;;;;;4773985;30;20047;-72
2021/10/11 08:49:48;;;;;;;6.75;0.90;;;17.90;74.60;;;;;;4773917;30;20083;-69
2021/10/11 08:52:14;;;;;;;9.63;1.75;;;17.90;74.10;;;;;;4773741;30;20116;-69
2021/10/11 08:54:41;;;;;;;9.23;1.58;;;17.90;74.10;;;;;;4773474;30;20044;-69
2021/10/11 08:57:17;;;;;;;9.48;1.35;;;17.90;74.10;;;;;;4758374;30;20071;-71
2021/10/11 08:59:44;;;;;;;7.85;1.85;;;18.00;74.20;;;;;;4774402;30;20453;-69
2021/10/11 09:02:10;;;;;;;8.43;1.55;;;18.00;74.20;;;;;;4759997;30;20056;-69
2021/10/11 09:04:51;;;;;;;6.53;1.42;;;18.00;74.10;;;;;;4755684;30;20056;-70
2021/10/11 09:07:22;;;;;;;8.02;1.20;;;18.00;74.30;;;;;;4756032;30;20172;-69
2021/10/11 09:09:49;;;;;;;7.57;1.10;;;18.00;74.50;;;;;;4755656;30;20520;-70
2021/10/11 09:12:16;;;;;;;6.63;1.00;;;18.00;74.70;;;;;;4755490;30;20365;-69
2021/10/11 09:14:45;;;;;;;12.25;1.30;;;17.90;74.70;;;;;;4740582;30;20125;-69
2021/10/11 09:17:22;;;;;;;7.43;1.13;;;17.90;74.90;;;;;;4757730;30;20051;-69
2021/10/11 09:19:57;;;;;;;6.32;1.00;;;17.90;74.80;;;;;;4773190;30;20067;-69
2021/10/11 09:22:37;;;;;;;8.48;0.82;;;17.90;75.10;;;;;;4774160;30;20047;-69
2021/10/11 09:25:04;;;;;;;9.43;1.40;;;17.90;75.40;;;;;;4772919;30;20062;-70
2021/10/11 09:27:51;;;;;;;9.70;1.00;;;17.90;75.70;;;;;;4772185;30;20064;-69
2021/10/11 09:30:25;;;;;;;5.80;0.85;;;17.90;76.00;;;;;;4773186;30;20091;-69
2021/10/11 09:33:04;;;;;;;6.53;1.27;;;17.80;76.10;;;;;;4773237;30;20044;-69
2021/10/11 09:35:32;;;;;;;6.53;0.93;;;17.90;76.30;;;;;;4764333;30;20424;-80
2021/10/11 09:37:58;;;;;;;11.00;0.93;;;17.80;76.30;;;;;;4755226;30;20063;-69
2021/10/11 09:40:25;;;;;;;11.98;1.00;;;17.80;76.30;;;;;;4755202;30;20056;-68
2021/10/11 09:42:53;;;;;;;15.02;1.95;;;17.80;76.30;;;;;;4755866;30;20060;-69
2021/10/11 09:45:23;;;;;;;9.80;1.48;;;17.80;76.20;;;;;;4760626;30;20334;-70
2021/10/11 09:47:50;;;;;;;9.90;1.17;;;17.90;76.10;;;;;;4759695;30;20064;-69
2021/10/11 09:50:17;;;;;;;8.73;1.20;;;17.80;75.80;;;;;;4755010;30;20064;-69
2021/10/11 09:52:44;;;;;;;8.48;1.63;;;17.80;75.60;;;;;;4754928;30;20051;-69
2021/10/11 09:55:12;;;;;;;7.88;0.95;;;17.80;75.40;;;;;;4765396;30;20051;-74
2021/10/11 09:57:38;;;;;;;8.85;0.90;;;17.80;75.40;;;;;;4773345;30;20540;-71
2021/10/11 10:00:11;;;;;;;6.55;1.05;;;17.80;75.40;;;;;;4772698;30;20125;-73
2021/10/11 10:02:39;;;;;;;4.30;0.98;;;17.80;75.40;;;;;;4747969;30;20060;-73
2021/10/11 10:05:11;;;;;;;9.68;0.98;;;17.70;72.90;;;;;;4754938;30;20044;-72
2021/10/11 10:07:42;;;;;;;7.93;1.40;;;17.60;72.90;;;;;;4739438;30;20056;-73
2021/10/11 10:10:09;;;;;;;9.27;1.00;;;17.60;74.80;;;;;;4754711;30;20106;-72
2021/10/11 10:12:45;;;;;;;8.77;1.35;;;17.70;75.00;;;;;;4755019;30;20099;-72
2021/10/11 10:15:12;;;;;;;6.43;1.23;;;17.70;75.20;;;;;;4739372;30;20164;-73
2021/10/11 10:17:38;;;;;;;8.52;0.93;;;17.80;75.10;;;;;;4755208;30;20462;-71
2021/10/11 10:20:13;;;;;;;6.82;1.20;;;17.80;75.00;;;;;;4754295;30;20143;-72
2021/10/11 10:22:45;;;;;;;5.13;0.80;;;17.90;74.80;;;;;;4767954;30;20117;-72
2021/10/11 10:25:11;;;;;;;7.47;1.20;;;17.90;74.60;;;;;;4754345;30;20059;-72
2021/10/11 10:27:39;;;;;;;8.57;1.27;;;17.90;74.20;;;;;;4754290;30;20487;-71
2021/10/11 10:30:22;;;;;;;5.38;1.20;;;17.90;73.90;;;;;;4754158;30;20060;-70
2021/10/11 10:33:00;;;;;;;9.67;1.63;;;18.00;73.60;;;;;;4738843;30;20110;-72
2021/10/11 10:35:29;;;;;;;8.77;1.65;;;18.00;72.70;;;;;;4738576;30;20072;-72
2021/10/11 10:37:56;;;;;;;7.40;0.90;;;17.90;72.60;;;;;;4738409;30;20122;-68
2021/10/11 10:40:28;;;;;;;5.65;0.80;;;18.00;72.30;;;;;;4755990;30;20405;-69
2021/10/11 10:43:16;;;;;;;3.17;0.90;;;18.00;71.70;;;;;;4771797;30;20097;-69
2021/10/11 10:45:43;;;;;;;5.60;1.10;;;18.00;71.40;;;;;;4772119;30;20063;-69
2021/10/11 10:48:20;;;;;;;6.50;1.10;;;17.90;71.80;;;;;;4771943;30;20078;-69
2021/10/11 10:50:48;;;;;;;4.50;0.77;;;18.00;71.80;;;;;;4772041;30;20151;-68
2021/10/11 10:53:14;;;;;;;4.75;0.95;;;17.90;72.00;;;;;;4771941;30;20422;-69
2021/10/11 10:55:42;;;;;;;3.95;0.93;;;18.00;72.20;;;;;;4772323;30;20427;-68
2021/10/11 10:58:10;;;;;;;3.80;1.00;;;18.00;72.40;;;;;;4772009;30;20380;-69
2021/10/11 11:00:38;;;;;;;2.90;0.77;;;18.00;72.50;;;;;;4764016;30;20123;-70
2021/10/11 11:03:04;;;;;;;5.85;0.60;;;18.00;72.70;;;;;;4754032;30;20063;-68
2021/10/11 11:05:30;;;;;;;2.97;0.70;;;18.00;73.30;;;;;;4738638;30;20048;-67
2021/10/11 11:07:57;;;;;;;5.65;0.80;;;18.00;71.30;;;;;;4754226;30;20087;-67
2021/10/11 11:10:32;;;;;;;7.43;0.90;;;17.80;72.10;;;;;;4753917;30;20056;-67
2021/10/11 11:13:07;;;;;;;8.23;1.02;;;17.80;73.10;;;;;;4769411;30;20052;-68
2021/10/11 11:15:40;;;;;;;8.13;1.08;;;17.90;73.50;;;;;;4755816;30;20062;-68
2021/10/11 11:18:10;;;;;;;;;;;17.90;73.40;;;;;;4770824;30;20059;-72
2021/10/11 11:20:38;;;;;;;17.92;1.52;;;17.90;73.60;;;;;;4770665;30;19936;-67
2021/10/11 11:23:11;;;;;;;11.00;1.52;;;17.90;73.30;;;;;;4754480;30;20067;-68
2021/10/11 11:25:40;;;;;;;4.27;0.83;;;17.90;73.10;;;;;;4754182;30;20121;-68
2021/10/11 11:28:09;;;;;;;7.07;0.77;;;17.90;73.00;;;;;;4753633;30;20384;-69
2021/10/11 11:30:36;;;;;;;6.28;0.95;;;17.90;73.10;;;;;;4764924;30;20052;-71
2021/10/11 11:33:07;;;;;;;9.85;1.00;;;17.90;73.30;;;;;;4771253;30;20471;-68
2021/10/11 11:35:34;;;;;;;5.85;1.00;;;17.90;73.30;;;;;;4772029;30;20082;-68
2021/10/11 11:38:03;;;;;;;7.75;1.10;;;17.90;73.20;;;;;;4772016;30;20063;-68
2021/10/11 11:40:37;;;;;;;7.50;0.75;;;17.90;73.20;;;;;;4771936;30;20408;-68
2021/10/11 11:43:08;;;;;;;6.80;1.10;;;17.80;73.10;;;;;;4771806;30;20128;-68
2021/10/11 11:45:41;;;;;;;6.22;1.02;;;17.80;73.10;;;;;;4754128;30;20117;-67
2021/10/11 11:48:18;;;;;;;7.00;1.40;;;17.80;73.20;;;;;;4754693;30;20106;-68
2021/10/11 11:50:45;;;;;;;4.82;0.90;;;17.80;73.20;;;;;;4755189;30;20131;-68
2021/10/11 11:53:14;;;;;;;6.22;1.00;;;17.80;73.30;;;;;;4757006;30;20051;-68
2021/10/11 11:55:43;;;;;;;4.22;0.80;;;17.80;73.40;;;;;;4756711;30;20051;-68
2021/10/11 11:58:15;;;;;;;4.40;1.10;;;17.80;73.30;;;;;;4757675;30;20086;-68
2021/10/11 12:00:49;;;;;;;6.97;1.00;;;17.80;73.30;;;;;;4757302;30;20056;-68
2021/10/11 12:03:18;;;;;;;6.07;0.60;;;17.80;73.30;;;;;;4771403;30;20480;-68
2021/10/11 12:05:47;;;;;;;4.38;0.95;;;17.80;73.40;;;;;;4774827;30;20360;-68
2021/10/11 12:08:14;;;;;;;8.38;1.02;;;17.70;73.40;;;;;;4774946;30;20091;-68
2021/10/11 12:10:40;;;;;;;6.05;1.15;;;17.80;73.50;;;;;;4774695;30;20059;-68
2021/10/11 12:13:06;;;;;;;3.88;0.80;;;17.80;73.50;;;;;;4774707;30;20059;-68
2021/10/11 12:15:33;;;;;;;3.53;0.65;;;17.70;73.50;;;;;;4774685;30;20063;-68
2021/10/11 12:18:10;;;;;;;4.65;0.60;;;17.70;73.60;;;;;;4774434;30;20059;-68
2021/10/11 12:20:46;;;;;;;3.75;0.75;;;17.70;73.50;;;;;;4774072;30;20480;-67
2021/10/11 12:23:13;;;;;;;5.38;0.70;;;17.70;74.20;;;;;;4774479;30;20052;-68
2021/10/11 12:25:40;;;;;;;7.95;1.35;;;17.70;73.60;;;;;;4761955;30;20048;-68
2021/10/11 12:28:14;;;;;;;4.57;0.88;;;17.70;73.60;;;;;;4756236;30;20114;-68
2021/10/11 12:30:46;;;;;;;3.20;0.70;;;17.70;73.60;;;;;;4756211;30;20058;-68
2021/10/11 12:33:13;;;;;;;4.10;0.80;;;17.70;73.70;;;;;;4756288;30;20534;-68
2021/10/11 12:35:41;;;;;;;6.13;1.02;;;17.70;73.70;;;;;;4756311;30;20048;-68
2021/10/11 12:38:11;;;;;;;3.65;0.70;;;17.70;73.70;;;;;;4756730;30;20138;-68
2021/10/11 12:40:41;;;;;;;4.63;0.80;;;17.70;73.80;;;;;;4756302;30;20094;-67
2021/10/11 12:43:19;;;;;;;4.85;0.82;;;17.70;72.70;;;;;;4756171;30;20144;-68
2021/10/11 12:46:00;;;;;;;3.80;0.93;;;17.50;71.90;;;;;;4755738;30;20139;-67
2021/10/11 12:48:26;;;;;;;5.43;0.82;;;17.50;72.70;;;;;;4767755;30;20064;-67
2021/10/11 12:50:53;;;;;;;2.70;0.63;;;17.50;73.50;;;;;;4774159;30;20132;-68
2021/10/11 12:53:31;;;;;;;5.60;0.95;;;17.50;73.80;;;;;;4773781;30;20101;-68
2021/10/11 12:55:59;;;;;;;3.78;0.63;;;17.50;73.90;;;;;;4773677;30;20109;-68
2021/10/11 12:58:26;;;;;;;4.35;0.70;;;17.50;74.60;;;;;;4773221;30;20124;-68
2021/10/11 13:00:53;;;;;;;3.05;0.50;;;17.50;74.00;;;;;;4773573;30;20062;-68
2021/10/11 13:03:20;;;;;;;3.33;0.55;;;17.50;74.00;;;;;;4773699;30;20093;-67
2021/10/11 13:05:46;;;;;;;5.40;0.70;;;17.50;74.10;;;;;;4773683;30;20433;-68
2021/10/11 13:08:11;;;;;;;1.90;0.40;;;17.50;74.00;;;;;;4773553;30;20076;-67
2021/10/11 13:10:38;;;;;;;3.67;0.32;;;17.50;74.10;;;;;;4771615;30;20047;-68
2021/10/11 13:13:05;;;;;;;3.85;0.60;;;17.60;74.20;;;;;;4773347;30;20062;-68
2021/10/11 13:15:31;;;;;;;4.20;0.75;;;17.60;74.20;;;;;;4773393;30;20444;-67
2021/10/11 13:17:58;;;;;;;3.80;0.60;;;17.50;74.10;;;;;;4773225;30;20063;-68
2021/10/11 13:20:24;;;;;;;2.88;0.60;;;17.50;74.20;;;;;;4774070;30;20104;-70
2021/10/11 13:22:50;;;;;;;2.28;0.52;;;17.60;74.20;;;;;;4770670;30;20047;-71
2021/10/11 13:25:16;;;;;;;3.35;0.73;;;17.60;74.10;;;;;;4772046;30;20556;-73
2021/10/11 13:27:42;;;;;;;3.92;0.50;;;17.60;73.80;;;;;;4772578;30;20067;-71
2021/10/11 13:41:59;;;;;;;3.28;0.57;;;17.70;72.60;;;;;;4773048;30;20375;-71
2021/10/11 14:29:54;;;;;;;8.35;2.10;;;17.90;76.80;;;;;;4771929;30;20476;-68
2021/10/11 14:32:59;;;;;;;13.68;2.40;;;17.90;76.60;;;;;;4772349;30;20134;-68
2021/10/11 15:57:42;;;;;;;7.05;1.35;;;18.30;74.10;;;;;;4773846;30;20059;-67
2021/10/11 16:00:14;;;;;;;6.57;1.63;;;18.30;74.10;;;;;;4774500;30;20083;-68
2021/10/11 16:02:42;;;;;;;6.82;1.35;;;18.30;74.00;;;;;;4774430;30;20556;-68
2021/10/11 16:05:08;;;;;;;9.45;1.30;;;18.30;74.00;;;;;;4774567;30;20052;-68
2021/10/11 16:07:34;;;;;;;6.90;1.35;;;18.30;74.00;;;;;;4774532;30;20530;-67
2021/10/11 16:10:00;;;;;;;9.15;1.60;;;18.30;74.00;;;;;;4774401;30;20392;-69
2021/10/11 16:12:26;;;;;;;9.10;1.40;;;18.30;74.00;;;;;;4756665;30;20067;-68
2021/10/11 16:14:52;;;;;;;4.72;1.05;;;18.20;74.00;;;;;;4740729;30;20052;-68
2021/10/11 16:17:17;;;;;;;6.85;1.45;;;18.30;74.20;;;;;;4756884;30;20157;-68
2021/10/11 16:19:43;;;;;;;5.15;1.27;;;18.20;74.10;;;;;;4756701;30;20071;-68
2021/10/11 16:22:09;;;;;;;6.10;1.08;;;18.20;74.10;;;;;;4757313;30;20084;-67
2021/10/11 16:24:35;;;;;;;7.60;1.70;;;18.20;72.50;;;;;;4756838;30;20060;-67
2021/10/11 16:27:00;;;;;;;8.07;1.10;;;18.10;73.00;;;;;;4760629;30;20491;-69
2021/10/11 16:29:26;;;;;;;3.47;0.95;;;18.10;73.60;;;;;;4774041;30;20070;-68
2021/10/11 16:31:52;;;;;;;7.57;0.95;;;18.10;73.20;;;;;;4757122;30;20066;-68
2021/10/11 16:34:22;;;;;;;6.05;0.95;;;18.10;72.70;;;;;;4774035;30;20073;-68
2021/10/11 16:36:49;;;;;;;7.90;1.15;;;18.10;73.30;;;;;;4773312;30;20063;-69
2021/10/11 16:39:15;;;;;;;5.13;1.10;;;18.10;72.80;;;;;;4756383;30;20131;-69
2021/10/11 16:41:42;;;;;;;6.35;1.17;;;18.10;72.70;;;;;;4755918;30;20107;-68
2021/10/11 16:44:10;;;;;;;3.42;0.55;;;18.10;72.70;;;;;;4756008;30;20048;-68
2021/10/11 16:46:37;;;;;;;4.82;0.98;;;18.10;72.60;;;;;;4756176;30;20362;-68
2021/10/11 16:49:04;;;;;;;4.72;0.90;;;18.20;72.60;;;;;;4757254;30;20106;-68
2021/10/11 16:51:29;;;;;;;7.43;0.93;;;18.20;72.70;;;;;;4773829;30;20063;-68
2021/10/11 16:56:31;;;;;;;4.18;0.57;;;18.20;72.60;;;;;;4773522;30;20055;-68
2021/10/11 16:59:01;;;;;;;3.03;0.57;;;18.20;72.60;;;;;;4773812;30;20055;-69
2021/10/11 17:01:28;;;;;;;4.70;0.93;;;18.20;72.60;;;;;;4773192;30;20046;-68
2021/10/11 17:03:56;;;;;;;5.90;0.82;;;18.20;72.70;;;;;;4773606;30;20123;-69
2021/10/11 17:06:24;;;;;;;4.22;0.93;;;18.20;72.80;;;;;;4773199;30;20052;-69
2021/10/11 17:42:36;;;;;;;28.90;11.15;;;18.10;73.20;;;;;;5208565;24;20059;-69
2021/10/11 17:45:03;;;;;;;25.00;9.30;;;18.10;73.10;;;;;;4771472;30;20048;-68
2021/10/11 17:47:29;;;;;;;20.30;5.72;;;18.10;72.60;;;;;;4772142;30;20055;-69
2021/10/11 17:49:56;;;;;;;17.58;5.13;;;18.20;72.30;;;;;;4773301;30;20060;-68
2021/10/11 17:52:23;;;;;;;7.93;2.25;;;18.10;71.50;;;;;;4773697;30;20090;-74
2021/10/11 17:54:49;;;;;;;6.78;2.22;;;18.10;70.50;;;;;;4772333;30;20055;-73
2021/10/11 17:57:15;;;;;;;8.00;1.27;;;18.10;69.50;;;;;;4772806;30;20070;-74
2021/10/11 17:59:40;;;;;;;9.00;1.25;;;18.10;68.50;;;;;;4757366;30;20146;-72
